SBMN/MAO METAR and TAF weather

Enter ICAO airport designator
Station Type Date Time Source
SBMN METAR 2021/07/30 06:00 UTC NOAA

SBMN 300600Z 24005KT 9999 SCT012 BKN090 26/22 Q1014


Station Type Date Time Source
SBMN Decoded METAR 2021/07/30 06:00 UTC NOAA

Manaus Aeroporto , Brazil (SBMN) 03-09S 059-59W 84M
Jul 30, 2021 - 02:00 AM EDT / 2021.07.30 0600 UTC
Wind: from the WSW (240 degrees) at 6 MPH (5 KT):0
Visibility: greater than 7 mile(s):0
Sky conditions: mostly cloudy
Temperature: 78 F (26 C)
Dew Point: 71 F (22 C)
Relative Humidity: 78%
Pressure (altimeter): 29.94 in. Hg (1014 hPa)
ob: SBMN 300600Z 24005KT 9999 SCT012 BKN090 26/22 Q1014
cycle: 6

Station Type Date Time Source
SBMN TAF 2021/07/30 06:21 UTC NOAA

TAF TAF SBMN 300330Z 3006/3018 27006KT 9999 SCT015 TN26/3006Z TX33/3016Z
BECMG 3010/3012 SCT020 FEW025TCU
BECMG 3012/3014 6000 TSRA SCT020 FEW025CB
RMK PEG

Example: see airport list